Detalii statie AGROSTAR [00001CEF]

Toti senzorii

Date Temperatura solului [C]Precipitatii [mm]Voltaj baterie [mV]HC Air temperature [C]HC Relative humidity [%]Punctul de roua [C]
medieminmaxsumaultimamedieminmaxmediemediemin
2019-06-15 18:00:00 25.6 25.6 25.8 0 6914 31.73 29.76 32.73 35.54 14.2 11.9
2019-06-15 19:00:00 25.7 25.5 25.9 2.2 6786 23.49 20.27 29.33 72.42 17.3 14.3
2019-06-15 20:00:00 25.6 25.5 25.8 0 6738 19.35 18.74 19.91 96.48 18.6 18
2019-06-15 21:00:00 25.4 25.2 25.5 0 6708 19.02 18.7 19.29 93.66 17.8 17.4
2019-06-15 22:00:00 25 25 25.3 0 6698 18.67 18.62 18.83 98.46 18.3 18.1
2019-06-15 23:00:00 24.8 24.6 24.9 0 6698 18.42 18.12 18.59 98.6 18 17.7
2019-06-16 00:00:00 24.5 24.4 24.8 0.2 6698 17.8 17.56 18.03 99.05 17.5 17.3
2019-06-16 01:00:00 24.2 24.1 24.5 0 6688 17.36 17.17 17.54 99.41 17.1 16.9
2019-06-16 02:00:00 23.9 23.8 24.2 0 6688 16.95 16.7 17.22 99.64 16.7 16.5
2019-06-16 03:00:00 23.7 23.6 23.9 0 6688 16.56 16.47 16.69 100 16.5 16.4
2019-06-16 04:00:00 23.4 23.3 23.7 0 6688 16.42 16.22 16.65 99.31 16.1 16
2019-06-16 05:00:00 23.1 23.1 23.3 0 6668 16.01 15.83 16.19 99.83 15.8 15.6
2019-06-16 06:00:00 22.9 22.8 23.1 0 6698 16.4 16.22 16.79 98.52 16 15.9
2019-06-16 07:00:00 22.7 22.5 22.9 0 6728 17.84 16.89 18.97 92.98 16.5 16.2
2019-06-16 08:00:00 22.5 22.4 22.8 0 6982 21.45 19.15 23.96 79.2 17.5 16.9
2019-06-16 09:00:00 22.4 22.4 22.6 0 7236 25.99 23.98 27.42 59.42 17.2 16.6
2019-06-16 10:00:00 22.8 22.6 23.2 0 7264 27.88 26.12 29.04 53.64 17.3 16.8
2019-06-16 11:00:00 23.4 23.1 23.7 0 7254 30.49 29.06 32.17 45.32 17.1 16
2019-06-16 12:00:00 24.1 23.8 24.3 0 7264 31.83 31.08 32.59 42.64 17.2 16.3
2019-06-16 13:00:00 24.7 24.5 25 0 7236 31.9 30 32.92 44.42 18 17.5
2019-06-16 14:00:00 25.1 25 25.4 0 7246 32.48 31.49 34.53 42.06 17.7 16.1
2019-06-16 15:00:00 25.5 25.4 25.7 0 7196 33.1 32.24 34.13 39.44 17.2 16.5
2019-06-16 16:00:00 25.7 25.6 25.8 0 7128 32.11 30.29 33.54 42 17.3 16.4
2019-06-16 17:00:00 25.8 25.7 26 0 7246 30.62 29.63 32.36 46.58 17.6 16.8
2019-06-16 18:00:00 25.9 25.9 26 0 6834 27.49 24.42 32.62 52.39 16.5 15.1
2019-06-16 19:00:00 25.9 25.9 26.1 0 6776 23.16 21.25 24.7 59.57 14.7 13.7
2019-06-16 20:00:00 25.7 25.6 26 0 6738 20.44 20.1 20.98 69.2 14.4 14
2019-06-16 21:00:00 25.5 25.4 25.7 0 6708 20.19 19.83 20.63 73.39 15.1 14.7
2019-06-16 22:00:00 25.1 24.9 25.3 0 6708 19.44 19.03 19.75 78.65 15.4 15.2
2019-06-16 23:00:00 24.8 24.7 25 0 6698 18.97 18.8 19.14 84.65 16.1 15.9
2019-06-17 00:00:00 24.5 24.4 24.8 0 6708 18.24 17.52 18.84 88.55 16.2 15.7
2019-06-17 01:00:00 24.3 24.1 24.5 0 6698 17.38 17.13 17.7 92.86 16.1 15.9
2019-06-17 02:00:00 23.9 23.8 24.2 0 6688 16.92 16.66 17.27 95.32 16 15.8
2019-06-17 03:00:00 23.7 23.6 24 0 6688 16.57 16.31 16.83 97.7 16 15.8
2019-06-17 04:00:00 23.4 23.3 23.6 0 6678 15.97 15.62 16.33 99.78 15.8 15.6
2019-06-17 05:00:00 23.2 23.1 23.4 0 6678 15.86 15.51 16.09 100 15.8 15.5
2019-06-17 06:00:00 22.9 22.8 23.2 0 6698 16.14 15.92 16.55 100 16 15.9
2019-06-17 07:00:00 22.7 22.6 22.9 0 6738 17.15 16.61 18.05 99.89 17 16.6
2019-06-17 08:00:00 22.5 22.4 22.8 0 6982 20.08 18.04 23.13 83.41 16.9 16.3
2019-06-17 09:00:00 22.4 22.4 22.6 0 7264 25.6 23.74 27.11 58.82 16.7 16.3
2019-06-17 10:00:00 22.8 22.5 23.1 0 7254 27.87 25.68 30.26 53.58 17.3 16.4
2019-06-17 11:00:00 23.4 23.1 23.8 0 7254 29.76 28.56 30.76 48.52 17.4 16.5
2019-06-17 12:00:00 24.1 23.8 24.6 0 7254 31.86 30.42 33.24 43.6 17.7 16.6
2019-06-17 13:00:00 24.8 24.4 25.2 0 7246 32.63 31.72 33.27 41.9 17.7 16.9
2019-06-17 14:00:00 25.3 25.1 25.5 0 7246 31.95 30.14 33.11 43.19 17.6 16.2
2019-06-17 15:00:00 25.7 25.5 25.8 0 7088 30.63 28.2 34.08 42.73 16.2 15.4
2019-06-17 16:00:00 25.8 25.7 26 0 7236 31.36 28.59 34.14 43.87 17.2 16
2019-06-17 17:00:00 25.8 25.8 26 0 7246 29.52 26.19 32.56 46.32 16.5 13.6